sensor_id;sensor_type;location;lat;lon;timestamp;temperature;humidity
8595;DHT22;4335;48.860;9.198;2024-03-02T00:02:12;6.80;99.90
8595;DHT22;4335;48.860;9.198;2024-03-02T00:04:46;6.80;99.90
8595;DHT22;4335;48.860;9.198;2024-03-02T00:07:17;6.90;99.90
8595;DHT22;4335;48.860;9.198;2024-03-02T00:09:45;6.90;99.90
8595;DHT22;4335;48.860;9.198;2024-03-02T00:12:15;6.90;99.90
8595;DHT22;4335;48.860;9.198;2024-03-02T00:14:46;6.90;99.90
8595;DHT22;4335;48.860;9.198;2024-03-02T00:17:24;6.90;99.90
8595;DHT22;4335;48.860;9.198;2024-03-02T00:19:52;6.90;99.90
8595;DHT22;4335;48.860;9.198;2024-03-02T00:22:19;6.80;99.90
8595;DHT22;4335;48.860;9.198;2024-03-02T00:24:49;6.80;99.90
8595;DHT22;4335;48.860;9.198;2024-03-02T00:27:32;6.80;99.90
8595;DHT22;4335;48.860;9.198;2024-03-02T00:30:27;6.80;99.90
8595;DHT22;4335;48.860;9.198;2024-03-02T00:33:08;6.70;99.90
8595;DHT22;4335;48.860;9.198;2024-03-02T00:35:45;6.70;99.90
8595;DHT22;4335;48.860;9.198;2024-03-02T00:38:16;6.60;99.90
8595;DHT22;4335;48.860;9.198;2024-03-02T00:40:46;6.60;99.90
8595;DHT22;4335;48.860;9.198;2024-03-02T00:46:21;6.60;99.90
8595;DHT22;4335;48.860;9.198;2024-03-02T00:48:55;6.60;99.90
8595;DHT22;4335;48.860;9.198;2024-03-02T00:51:32;6.60;99.90
8595;DHT22;4335;48.860;9.198;2024-03-02T00:54:08;6.50;99.90
8595;DHT22;4335;48.860;9.198;2024-03-02T00:56:36;6.50;99.90
8595;DHT22;4335;48.860;9.198;2024-03-02T00:59:03;6.50;99.90
8595;DHT22;4335;48.860;9.198;2024-03-02T01:01:31;6.50;99.90
8595;DHT22;4335;48.860;9.198;2024-03-02T01:04:00;6.50;99.90
8595;DHT22;4335;48.860;9.198;2024-03-02T01:06:28;6.40;99.90
8595;DHT22;4335;48.860;9.198;2024-03-02T01:08:55;6.40;99.90
8595;DHT22;4335;48.860;9.198;2024-03-02T01:11:22;6.40;99.90
8595;DHT22;4335;48.860;9.198;2024-03-02T01:13:50;6.40;99.90
8595;DHT22;4335;48.860;9.198;2024-03-02T01:16:16;6.40;99.90
8595;DHT22;4335;48.860;9.198;2024-03-02T01:18:47;6.40;99.90
8595;DHT22;4335;48.860;9.198;2024-03-02T01:21:16;6.50;99.90
8595;DHT22;4335;48.860;9.198;2024-03-02T01:23:43;6.40;99.90
8595;DHT22;4335;48.860;9.198;2024-03-02T01:26:11;6.40;99.90
8595;DHT22;4335;48.860;9.198;2024-03-02T01:28:41;6.40;99.90
8595;DHT22;4335;48.860;9.198;2024-03-02T01:31:09;6.40;99.90
8595;DHT22;4335;48.860;9.198;2024-03-02T01:33:39;6.40;99.90
8595;DHT22;4335;48.860;9.198;2024-03-02T01:36:07;6.40;99.90
8595;DHT22;4335;48.860;9.198;2024-03-02T01:38:42;6.40;99.90
8595;DHT22;4335;48.860;9.198;2024-03-02T01:41:09;6.40;99.90
8595;DHT22;4335;48.860;9.198;2024-03-02T01:43:43;6.30;99.90
8595;DHT22;4335;48.860;9.198;2024-03-02T01:46:17;6.30;99.90
8595;DHT22;4335;48.860;9.198;2024-03-02T01:48:53;6.30;99.90
8595;DHT22;4335;48.860;9.198;2024-03-02T01:51:21;6.30;99.90
8595;DHT22;4335;48.860;9.198;2024-03-02T01:53:50;6.20;99.90
8595;DHT22;4335;48.860;9.198;2024-03-02T01:56:17;6.20;99.90
8595;DHT22;4335;48.860;9.198;2024-03-02T01:58:47;6.20;99.90
8595;DHT22;4335;48.860;9.198;2024-03-02T02:01:15;6.10;99.90
8595;DHT22;4335;48.860;9.198;2024-03-02T02:03:44;6.10;99.90
8595;DHT22;4335;48.860;9.198;2024-03-02T02:06:17;6.10;99.90
8595;DHT22;4335;48.860;9.198;2024-03-02T02:08:45;6.10;99.90
8595;DHT22;4335;48.860;9.198;2024-03-02T02:11:16;6.10;99.90
8595;DHT22;4335;48.860;9.198;2024-03-02T02:13:44;6.00;99.90
8595;DHT22;4335;48.860;9.198;2024-03-02T02:16:14;6.00;99.90
8595;DHT22;4335;48.860;9.198;2024-03-02T02:18:43;6.00;99.90
8595;DHT22;4335;48.860;9.198;2024-03-02T02:21:13;5.90;99.90
8595;DHT22;4335;48.860;9.198;2024-03-02T02:23:44;5.90;99.90
8595;DHT22;4335;48.860;9.198;2024-03-02T02:26:26;5.90;99.90
8595;DHT22;4335;48.860;9.198;2024-03-02T02:28:53;5.90;99.90
8595;DHT22;4335;48.860;9.198;2024-03-02T02:31:20;5.90;99.90
8595;DHT22;4335;48.860;9.198;2024-03-02T02:33:47;5.80;99.90
8595;DHT22;4335;48.860;9.198;2024-03-02T02:36:17;5.80;99.90
8595;DHT22;4335;48.860;9.198;2024-03-02T02:39:03;5.80;99.90
8595;DHT22;4335;48.860;9.198;2024-03-02T02:41:31;5.80;99.90
8595;DHT22;4335;48.860;9.198;2024-03-02T02:44:04;5.80;99.90
8595;DHT22;4335;48.860;9.198;2024-03-02T02:46:32;5.80;99.90
8595;DHT22;4335;48.860;9.198;2024-03-02T02:48:59;5.70;99.90
8595;DHT22;4335;48.860;9.198;2024-03-02T02:51:26;5.70;99.90
8595;DHT22;4335;48.860;9.198;2024-03-02T02:53:57;5.70;99.90
8595;DHT22;4335;48.860;9.198;2024-03-02T02:56:26;5.70;99.90
8595;DHT22;4335;48.860;9.198;2024-03-02T02:58:53;5.60;99.90
8595;DHT22;4335;48.860;9.198;2024-03-02T03:01:29;5.60;99.90
8595;DHT22;4335;48.860;9.198;2024-03-02T03:03:56;5.60;99.90
8595;DHT22;4335;48.860;9.198;2024-03-02T03:06:24;5.50;99.90
8595;DHT22;4335;48.860;9.198;2024-03-02T03:08:54;5.50;99.90
8595;DHT22;4335;48.860;9.198;2024-03-02T03:11:24;5.50;99.90
8595;DHT22;4335;48.860;9.198;2024-03-02T03:13:54;5.50;99.90
8595;DHT22;4335;48.860;9.198;2024-03-02T03:16:21;5.50;99.90
8595;DHT22;4335;48.860;9.198;2024-03-02T03:18:54;5.50;99.90
8595;DHT22;4335;48.860;9.198;2024-03-02T03:21:22;5.50;99.90
8595;DHT22;4335;48.860;9.198;2024-03-02T03:23:49;5.40;99.90
8595;DHT22;4335;48.860;9.198;2024-03-02T03:26:17;5.40;99.90
8595;DHT22;4335;48.860;9.198;2024-03-02T03:28:44;5.40;99.90
8595;DHT22;4335;48.860;9.198;2024-03-02T03:31:15;5.40;99.90
8595;DHT22;4335;48.860;9.198;2024-03-02T03:33:43;5.30;99.90
8595;DHT22;4335;48.860;9.198;2024-03-02T03:36:12;5.30;99.90
8595;DHT22;4335;48.860;9.198;2024-03-02T03:38:40;5.30;99.90
8595;DHT22;4335;48.860;9.198;2024-03-02T03:41:07;5.20;99.90
8595;DHT22;4335;48.860;9.198;2024-03-02T03:43:35;5.20;99.90
8595;DHT22;4335;48.860;9.198;2024-03-02T03:46:05;5.20;99.90
8595;DHT22;4335;48.860;9.198;2024-03-02T03:48:35;5.20;99.90
8595;DHT22;4335;48.860;9.198;2024-03-02T03:51:05;5.10;99.90
8595;DHT22;4335;48.860;9.198;2024-03-02T03:53:36;5.10;99.90
8595;DHT22;4335;48.860;9.198;2024-03-02T03:56:04;5.10;99.90
8595;DHT22;4335;48.860;9.198;2024-03-02T03:58:31;5.10;99.90
8595;DHT22;4335;48.860;9.198;2024-03-02T04:01:01;5.10;99.90
8595;DHT22;4335;48.860;9.198;2024-03-02T04:03:35;5.10;99.90
8595;DHT22;4335;48.860;9.198;2024-03-02T04:06:05;5.10;99.90
8595;DHT22;4335;48.860;9.198;2024-03-02T04:08:35;5.10;99.90
8595;DHT22;4335;48.860;9.198;2024-03-02T04:11:06;5.10;99.90
8595;DHT22;4335;48.860;9.198;2024-03-02T04:13:33;5.10;99.90
8595;DHT22;4335;48.860;9.198;2024-03-02T04:16:01;5.10;99.90
8595;DHT22;4335;48.860;9.198;2024-03-02T04:18:29;5.00;99.90
8595;DHT22;4335;48.860;9.198;2024-03-02T04:21:07;5.00;99.90
8595;DHT22;4335;48.860;9.198;2024-03-02T04:23:34;5.00;99.90
8595;DHT22;4335;48.860;9.198;2024-03-02T04:26:01;5.00;99.90
8595;DHT22;4335;48.860;9.198;2024-03-02T04:28:32;5.00;99.90
8595;DHT22;4335;48.860;9.198;2024-03-02T04:30:59;5.00;99.90
8595;DHT22;4335;48.860;9.198;2024-03-02T04:33:26;4.90;99.90
8595;DHT22;4335;48.860;9.198;2024-03-02T04:35:54;4.90;99.90
8595;DHT22;4335;48.860;9.198;2024-03-02T04:38:23;4.90;99.90
8595;DHT22;4335;48.860;9.198;2024-03-02T04:40:53;4.90;99.90
8595;DHT22;4335;48.860;9.198;2024-03-02T04:43:20;4.90;99.90
8595;DHT22;4335;48.860;9.198;2024-03-02T04:45:57;4.90;99.90
8595;DHT22;4335;48.860;9.198;2024-03-02T04:48:25;4.90;99.90
8595;DHT22;4335;48.860;9.198;2024-03-02T04:50:52;4.90;99.90
8595;DHT22;4335;48.860;9.198;2024-03-02T04:53:20;4.90;99.90
8595;DHT22;4335;48.860;9.198;2024-03-02T04:55:48;4.90;99.90
8595;DHT22;4335;48.860;9.198;2024-03-02T04:58:41;4.80;99.90
8595;DHT22;4335;48.860;9.198;2024-03-02T05:01:08;4.80;99.90
8595;DHT22;4335;48.860;9.198;2024-03-02T05:03:39;4.90;99.90
8595;DHT22;4335;48.860;9.198;2024-03-02T05:06:07;4.80;99.90
8595;DHT22;4335;48.860;9.198;2024-03-02T05:08:36;4.80;99.90
8595;DHT22;4335;48.860;9.198;2024-03-02T05:11:05;4.80;99.90
8595;DHT22;4335;48.860;9.198;2024-03-02T05:13:49;4.80;99.90
8595;DHT22;4335;48.860;9.198;2024-03-02T05:16:16;4.70;99.90
8595;DHT22;4335;48.860;9.198;2024-03-02T05:18:44;4.70;99.90
8595;DHT22;4335;48.860;9.198;2024-03-02T05:21:11;4.70;99.90
8595;DHT22;4335;48.860;9.198;2024-03-02T05:23:46;4.70;99.90
8595;DHT22;4335;48.860;9.198;2024-03-02T05:26:18;4.70;99.90
8595;DHT22;4335;48.860;9.198;2024-03-02T05:28:54;4.70;99.90
8595;DHT22;4335;48.860;9.198;2024-03-02T05:31:30;4.70;99.90
8595;DHT22;4335;48.860;9.198;2024-03-02T05:34:01;4.60;99.90
8595;DHT22;4335;48.860;9.198;2024-03-02T05:36:28;4.60;99.90
8595;DHT22;4335;48.860;9.198;2024-03-02T05:38:58;4.60;99.90
8595;DHT22;4335;48.860;9.198;2024-03-02T05:41:30;4.60;99.90
8595;DHT22;4335;48.860;9.198;2024-03-02T05:43:58;4.60;99.90
8595;DHT22;4335;48.860;9.198;2024-03-02T05:46:25;4.50;99.90
8595;DHT22;4335;48.860;9.198;2024-03-02T05:48:53;4.50;99.90
8595;DHT22;4335;48.860;9.198;2024-03-02T05:51:25;4.50;99.90
8595;DHT22;4335;48.860;9.198;2024-03-02T05:53:55;4.50;99.90
8595;DHT22;4335;48.860;9.198;2024-03-02T05:56:26;4.50;99.90
8595;DHT22;4335;48.860;9.198;2024-03-02T05:59:16;4.50;99.90
8595;DHT22;4335;48.860;9.198;2024-03-02T06:01:44;4.50;99.90
8595;DHT22;4335;48.860;9.198;2024-03-02T06:04:12;4.50;99.90
8595;DHT22;4335;48.860;9.198;2024-03-02T06:06:43;4.50;99.90
8595;DHT22;4335;48.860;9.198;2024-03-02T06:09:10;4.50;99.90
8595;DHT22;4335;48.860;9.198;2024-03-02T06:11:40;4.50;99.90
8595;DHT22;4335;48.860;9.198;2024-03-02T06:14:12;4.50;99.90
8595;DHT22;4335;48.860;9.198;2024-03-02T06:16:42;4.50;99.90
8595;DHT22;4335;48.860;9.198;2024-03-02T06:19:09;4.50;99.90
8595;DHT22;4335;48.860;9.198;2024-03-02T06:21:37;4.50;99.90
8595;DHT22;4335;48.860;9.198;2024-03-02T06:24:06;4.60;99.90
8595;DHT22;4335;48.860;9.198;2024-03-02T06:26:33;4.60;99.90
8595;DHT22;4335;48.860;9.198;2024-03-02T06:29:08;4.60;99.90
8595;DHT22;4335;48.860;9.198;2024-03-02T06:31:37;4.70;99.90
8595;DHT22;4335;48.860;9.198;2024-03-02T06:34:07;4.70;99.90
8595;DHT22;4335;48.860;9.198;2024-03-02T06:36:41;4.70;99.90
8595;DHT22;4335;48.860;9.198;2024-03-02T06:39:08;4.80;99.90
8595;DHT22;4335;48.860;9.198;2024-03-02T06:41:39;4.80;99.90
8595;DHT22;4335;48.860;9.198;2024-03-02T06:44:06;4.90;99.90
8595;DHT22;4335;48.860;9.198;2024-03-02T06:46:41;5.00;99.90
8595;DHT22;4335;48.860;9.198;2024-03-02T06:49:08;5.10;99.90
8595;DHT22;4335;48.860;9.198;2024-03-02T06:51:48;5.20;99.90
8595;DHT22;4335;48.860;9.198;2024-03-02T06:54:16;5.30;99.90
8595;DHT22;4335;48.860;9.198;2024-03-02T06:56:46;5.30;99.90
8595;DHT22;4335;48.860;9.198;2024-03-02T06:59:13;5.40;99.90
8595;DHT22;4335;48.860;9.198;2024-03-02T07:01:42;5.50;99.90
8595;DHT22;4335;48.860;9.198;2024-03-02T07:04:19;5.50;99.90
8595;DHT22;4335;48.860;9.198;2024-03-02T07:06:53;5.60;99.90
8595;DHT22;4335;48.860;9.198;2024-03-02T07:09:22;5.70;99.90
8595;DHT22;4335;48.860;9.198;2024-03-02T07:11:49;5.80;99.90
8595;DHT22;4335;48.860;9.198;2024-03-02T07:14:17;5.90;99.90
8595;DHT22;4335;48.860;9.198;2024-03-02T07:16:49;6.10;99.90
8595;DHT22;4335;48.860;9.198;2024-03-02T07:19:16;6.20;99.90
8595;DHT22;4335;48.860;9.198;2024-03-02T07:21:44;6.20;99.90
8595;DHT22;4335;48.860;9.198;2024-03-02T07:24:14;6.30;99.90
8595;DHT22;4335;48.860;9.198;2024-03-02T07:26:42;6.40;99.90
8595;DHT22;4335;48.860;9.198;2024-03-02T07:29:09;6.50;99.90
8595;DHT22;4335;48.860;9.198;2024-03-02T07:31:44;6.60;99.90
8595;DHT22;4335;48.860;9.198;2024-03-02T07:34:17;6.70;99.90
8595;DHT22;4335;48.860;9.198;2024-03-02T07:36:45;6.80;99.90
8595;DHT22;4335;48.860;9.198;2024-03-02T07:39:11;7.00;99.90
8595;DHT22;4335;48.860;9.198;2024-03-02T07:41:39;7.00;99.90
8595;DHT22;4335;48.860;9.198;2024-03-02T07:44:06;7.10;99.90
8595;DHT22;4335;48.860;9.198;2024-03-02T07:46:37;7.20;99.90
8595;DHT22;4335;48.860;9.198;2024-03-02T07:49:05;7.30;99.90
8595;DHT22;4335;48.860;9.198;2024-03-02T07:51:42;7.40;99.90
8595;DHT22;4335;48.860;9.198;2024-03-02T07:54:09;7.40;99.90
8595;DHT22;4335;48.860;9.198;2024-03-02T07:56:43;7.50;99.90
8595;DHT22;4335;48.860;9.198;2024-03-02T07:59:10;7.60;99.90
8595;DHT22;4335;48.860;9.198;2024-03-02T08:01:43;7.70;99.90
8595;DHT22;4335;48.860;9.198;2024-03-02T08:04:12;7.80;99.90
8595;DHT22;4335;48.860;9.198;2024-03-02T08:06:40;7.90;99.90
8595;DHT22;4335;48.860;9.198;2024-03-02T08:09:07;7.90;99.90
8595;DHT22;4335;48.860;9.198;2024-03-02T08:11:45;7.90;99.90
8595;DHT22;4335;48.860;9.198;2024-03-02T08:14:16;8.00;99.90
8595;DHT22;4335;48.860;9.198;2024-03-02T08:16:43;8.10;99.90
8595;DHT22;4335;48.860;9.198;2024-03-02T08:19:12;8.00;99.90
8595;DHT22;4335;48.860;9.198;2024-03-02T08:21:40;8.10;99.90
8595;DHT22;4335;48.860;9.198;2024-03-02T08:24:07;8.10;99.90
8595;DHT22;4335;48.860;9.198;2024-03-02T08:26:35;8.20;99.90
8595;DHT22;4335;48.860;9.198;2024-03-02T08:29:02;8.10;99.90
8595;DHT22;4335;48.860;9.198;2024-03-02T08:31:30;8.20;99.90
8595;DHT22;4335;48.860;9.198;2024-03-02T08:34:00;8.20;99.90
8595;DHT22;4335;48.860;9.198;2024-03-02T08:36:29;8.20;99.90
8595;DHT22;4335;48.860;9.198;2024-03-02T08:39:06;8.20;99.90
8595;DHT22;4335;48.860;9.198;2024-03-02T08:41:44;8.20;99.90
8595;DHT22;4335;48.860;9.198;2024-03-02T08:44:12;8.30;99.90
8595;DHT22;4335;48.860;9.198;2024-03-02T08:46:42;8.40;99.90
8595;DHT22;4335;48.860;9.198;2024-03-02T08:49:11;8.40;99.90
8595;DHT22;4335;48.860;9.198;2024-03-02T08:51:40;8.50;99.90
8595;DHT22;4335;48.860;9.198;2024-03-02T08:54:07;8.50;99.90
8595;DHT22;4335;48.860;9.198;2024-03-02T08:56:35;8.60;99.90
8595;DHT22;4335;48.860;9.198;2024-03-02T08:59:06;8.60;99.90
8595;DHT22;4335;48.860;9.198;2024-03-02T09:01:33;8.80;99.90
8595;DHT22;4335;48.860;9.198;2024-03-02T09:04:04;9.00;99.90
8595;DHT22;4335;48.860;9.198;2024-03-02T09:06:31;9.00;99.90
8595;DHT22;4335;48.860;9.198;2024-03-02T09:09:00;9.10;99.90
8595;DHT22;4335;48.860;9.198;2024-03-02T09:11:31;9.00;99.90
8595;DHT22;4335;48.860;9.198;2024-03-02T09:13:59;9.00;99.90
8595;DHT22;4335;48.860;9.198;2024-03-02T09:16:26;8.90;99.90
8595;DHT22;4335;48.860;9.198;2024-03-02T09:18:56;9.10;99.90
8595;DHT22;4335;48.860;9.198;2024-03-02T09:21:24;9.10;99.90
8595;DHT22;4335;48.860;9.198;2024-03-02T09:23:57;9.10;99.90
8595;DHT22;4335;48.860;9.198;2024-03-02T09:26:26;9.20;99.90
8595;DHT22;4335;48.860;9.198;2024-03-02T09:28:53;9.30;99.90
8595;DHT22;4335;48.860;9.198;2024-03-02T09:31:24;9.30;99.90
8595;DHT22;4335;48.860;9.198;2024-03-02T09:33:54;9.40;99.90
8595;DHT22;4335;48.860;9.198;2024-03-02T09:36:24;9.30;99.90
8595;DHT22;4335;48.860;9.198;2024-03-02T09:38:55;9.40;99.90
8595;DHT22;4335;48.860;9.198;2024-03-02T09:41:22;9.40;99.90
8595;DHT22;4335;48.860;9.198;2024-03-02T09:43:51;9.50;99.90
8595;DHT22;4335;48.860;9.198;2024-03-02T09:46:22;9.50;99.90
8595;DHT22;4335;48.860;9.198;2024-03-02T09:48:49;9.70;99.90
8595;DHT22;4335;48.860;9.198;2024-03-02T09:51:17;9.70;99.90
8595;DHT22;4335;48.860;9.198;2024-03-02T09:53:47;9.70;99.90
8595;DHT22;4335;48.860;9.198;2024-03-02T09:56:17;9.70;99.90
8595;DHT22;4335;48.860;9.198;2024-03-02T09:58:45;9.80;99.90
8595;DHT22;4335;48.860;9.198;2024-03-02T10:01:14;9.80;99.90
8595;DHT22;4335;48.860;9.198;2024-03-02T10:03:45;9.70;99.90
8595;DHT22;4335;48.860;9.198;2024-03-02T10:06:24;9.80;99.90
8595;DHT22;4335;48.860;9.198;2024-03-02T10:08:52;9.80;99.90
8595;DHT22;4335;48.860;9.198;2024-03-02T10:11:31;10.00;99.90
8595;DHT22;4335;48.860;9.198;2024-03-02T10:14:08;10.20;99.90
8595;DHT22;4335;48.860;9.198;2024-03-02T10:16:39;11.50;99.90
8595;DHT22;4335;48.860;9.198;2024-03-02T10:19:17;13.80;99.90
8595;DHT22;4335;48.860;9.198;2024-03-02T10:21:52;16.60;99.90
8595;DHT22;4335;48.860;9.198;2024-03-02T10:24:20;18.90;99.90
8595;DHT22;4335;48.860;9.198;2024-03-02T10:26:56;20.90;98.10
8595;DHT22;4335;48.860;9.198;2024-03-02T10:29:24;22.40;89.90
8595;DHT22;4335;48.860;9.198;2024-03-02T10:31:55;23.10;83.60
8595;DHT22;4335;48.860;9.198;2024-03-02T10:34:31;24.10;76.40
8595;DHT22;4335;48.860;9.198;2024-03-02T10:36:59;24.90;73.10
8595;DHT22;4335;48.860;9.198;2024-03-02T10:39:26;26.10;68.60
8595;DHT22;4335;48.860;9.198;2024-03-02T10:41:55;26.90;64.10
8595;DHT22;4335;48.860;9.198;2024-03-02T10:44:23;27.40;59.20
8595;DHT22;4335;48.860;9.198;2024-03-02T10:46:52;28.20;57.80
8595;DHT22;4335;48.860;9.198;2024-03-02T10:49:23;28.00;55.90
8595;DHT22;4335;48.860;9.198;2024-03-02T10:51:51;27.30;55.80
8595;DHT22;4335;48.860;9.198;2024-03-02T10:54:18;26.80;55.90
8595;DHT22;4335;48.860;9.198;2024-03-02T10:56:52;26.60;56.30
8595;DHT22;4335;48.860;9.198;2024-03-02T10:59:27;27.00;56.10
8595;DHT22;4335;48.860;9.198;2024-03-02T11:01:58;27.90;54.70
8595;DHT22;4335;48.860;9.198;2024-03-02T11:04:31;27.90;51.90
8595;DHT22;4335;48.860;9.198;2024-03-02T11:07:04;27.80;50.80
8595;DHT22;4335;48.860;9.198;2024-03-02T11:09:34;27.20;50.60
8595;DHT22;4335;48.860;9.198;2024-03-02T11:12:03;26.20;51.20
8595;DHT22;4335;48.860;9.198;2024-03-02T11:14:34;25.20;52.80
8595;DHT22;4335;48.860;9.198;2024-03-02T11:17:05;23.90;55.20
8595;DHT22;4335;48.860;9.198;2024-03-02T11:19:37;22.40;55.40
8595;DHT22;4335;48.860;9.198;2024-03-02T11:22:12;21.10;58.50
8595;DHT22;4335;48.860;9.198;2024-03-02T11:24:48;19.60;63.70
8595;DHT22;4335;48.860;9.198;2024-03-02T11:30:51;18.10;69.70
8595;DHT22;4335;48.860;9.198;2024-03-02T11:33:25;16.80;78.40
8595;DHT22;4335;48.860;9.198;2024-03-02T11:35:58;15.80;84.10
8595;DHT22;4335;48.860;9.198;2024-03-02T11:38:31;15.40;91.10
8595;DHT22;4335;48.860;9.198;2024-03-02T11:41:03;15.00;92.70
8595;DHT22;4335;48.860;9.198;2024-03-02T11:43:33;14.90;95.70
8595;DHT22;4335;48.860;9.198;2024-03-02T11:46:01;14.70;97.70
8595;DHT22;4335;48.860;9.198;2024-03-02T11:48:33;14.50;99.00
8595;DHT22;4335;48.860;9.198;2024-03-02T11:51:09;14.30;99.90
8595;DHT22;4335;48.860;9.198;2024-03-02T11:53:42;14.10;99.90
8595;DHT22;4335;48.860;9.198;2024-03-02T11:56:14;14.10;99.90
8595;DHT22;4335;48.860;9.198;2024-03-02T11:58:45;13.90;99.90
8595;DHT22;4335;48.860;9.198;2024-03-02T12:01:16;13.90;99.90
8595;DHT22;4335;48.860;9.198;2024-03-02T12:03:44;13.80;99.90
8595;DHT22;4335;48.860;9.198;2024-03-02T12:06:17;13.80;99.90
8595;DHT22;4335;48.860;9.198;2024-03-02T12:08:53;13.70;99.90
8595;DHT22;4335;48.860;9.198;2024-03-02T12:11:20;13.60;99.90
8595;DHT22;4335;48.860;9.198;2024-03-02T12:13:54;13.60;99.90
8595;DHT22;4335;48.860;9.198;2024-03-02T12:16:24;13.60;99.90
8595;DHT22;4335;48.860;9.198;2024-03-02T12:18:51;13.60;99.90
8595;DHT22;4335;48.860;9.198;2024-03-02T12:21:20;13.60;99.90
8595;DHT22;4335;48.860;9.198;2024-03-02T12:23:50;13.60;99.90
8595;DHT22;4335;48.860;9.198;2024-03-02T12:26:17;13.70;99.90
8595;DHT22;4335;48.860;9.198;2024-03-02T12:28:48;13.70;99.90
8595;DHT22;4335;48.860;9.198;2024-03-02T12:31:16;13.80;99.90
8595;DHT22;4335;48.860;9.198;2024-03-02T12:33:43;13.80;99.90
8595;DHT22;4335;48.860;9.198;2024-03-02T12:36:14;13.80;99.90
8595;DHT22;4335;48.860;9.198;2024-03-02T12:38:45;13.90;99.90
8595;DHT22;4335;48.860;9.198;2024-03-02T12:41:15;13.90;99.90
8595;DHT22;4335;48.860;9.198;2024-03-02T12:43:49;13.90;99.90
8595;DHT22;4335;48.860;9.198;2024-03-02T12:46:25;14.00;99.90
8595;DHT22;4335;48.860;9.198;2024-03-02T12:48:53;14.10;99.90
8595;DHT22;4335;48.860;9.198;2024-03-02T12:51:24;14.00;99.90
8595;DHT22;4335;48.860;9.198;2024-03-02T12:53:57;14.00;99.90
8595;DHT22;4335;48.860;9.198;2024-03-02T12:56:24;14.00;99.90
8595;DHT22;4335;48.860;9.198;2024-03-02T12:58:59;14.10;99.90
8595;DHT22;4335;48.860;9.198;2024-03-02T13:01:26;14.10;99.90
8595;DHT22;4335;48.860;9.198;2024-03-02T13:03:54;14.00;99.90
8595;DHT22;4335;48.860;9.198;2024-03-02T13:06:23;14.10;99.90
8595;DHT22;4335;48.860;9.198;2024-03-02T13:08:58;14.10;99.90
8595;DHT22;4335;48.860;9.198;2024-03-02T13:11:28;14.10;99.90
8595;DHT22;4335;48.860;9.198;2024-03-02T13:14:00;14.10;99.90
8595;DHT22;4335;48.860;9.198;2024-03-02T13:16:29;14.10;99.90
8595;DHT22;4335;48.860;9.198;2024-03-02T13:18:57;14.10;99.90
8595;DHT22;4335;48.860;9.198;2024-03-02T13:21:25;14.10;99.90
8595;DHT22;4335;48.860;9.198;2024-03-02T13:23:57;14.10;99.90
8595;DHT22;4335;48.860;9.198;2024-03-02T13:26:25;14.10;99.90
8595;DHT22;4335;48.860;9.198;2024-03-02T13:28:52;14.10;99.90
8595;DHT22;4335;48.860;9.198;2024-03-02T13:31:19;14.30;99.90
8595;DHT22;4335;48.860;9.198;2024-03-02T13:33:48;14.20;99.90
8595;DHT22;4335;48.860;9.198;2024-03-02T13:36:15;14.20;99.90
8595;DHT22;4335;48.860;9.198;2024-03-02T13:38:44;14.20;99.90
8595;DHT22;4335;48.860;9.198;2024-03-02T13:41:25;14.10;99.90
8595;DHT22;4335;48.860;9.198;2024-03-02T13:43:57;14.20;99.90
8595;DHT22;4335;48.860;9.198;2024-03-02T13:46:33;14.10;99.90
8595;DHT22;4335;48.860;9.198;2024-03-02T13:49:03;14.20;99.90
8595;DHT22;4335;48.860;9.198;2024-03-02T13:51:34;14.20;99.90
8595;DHT22;4335;48.860;9.198;2024-03-02T13:54:07;14.20;99.90
8595;DHT22;4335;48.860;9.198;2024-03-02T13:56:36;14.30;99.90
8595;DHT22;4335;48.860;9.198;2024-03-02T13:59:05;14.30;99.90
8595;DHT22;4335;48.860;9.198;2024-03-02T14:01:35;14.30;99.90
8595;DHT22;4335;48.860;9.198;2024-03-02T14:04:03;14.30;99.90
8595;DHT22;4335;48.860;9.198;2024-03-02T14:06:31;14.30;99.90
8595;DHT22;4335;48.860;9.198;2024-03-02T14:08:58;14.30;99.90
8595;DHT22;4335;48.860;9.198;2024-03-02T14:11:29;14.30;99.90
8595;DHT22;4335;48.860;9.198;2024-03-02T14:13:58;14.30;99.90
8595;DHT22;4335;48.860;9.198;2024-03-02T14:16:25;14.30;99.90
8595;DHT22;4335;48.860;9.198;2024-03-02T14:18:56;14.30;99.90
8595;DHT22;4335;48.860;9.198;2024-03-02T14:21:25;14.30;99.90
8595;DHT22;4335;48.860;9.198;2024-03-02T14:23:55;14.30;99.90
8595;DHT22;4335;48.860;9.198;2024-03-02T14:26:25;14.30;99.90
8595;DHT22;4335;48.860;9.198;2024-03-02T14:28:54;14.30;99.90
8595;DHT22;4335;48.860;9.198;2024-03-02T14:31:27;14.40;99.90
8595;DHT22;4335;48.860;9.198;2024-03-02T14:34:04;14.50;99.90
8595;DHT22;4335;48.860;9.198;2024-03-02T14:36:35;14.50;99.90
8595;DHT22;4335;48.860;9.198;2024-03-02T14:39:08;14.50;99.90
8595;DHT22;4335;48.860;9.198;2024-03-02T14:41:39;14.50;99.90
8595;DHT22;4335;48.860;9.198;2024-03-02T14:44:09;14.50;99.90
8595;DHT22;4335;48.860;9.198;2024-03-02T14:46:46;14.40;99.90
8595;DHT22;4335;48.860;9.198;2024-03-02T14:49:15;14.50;99.90
8595;DHT22;4335;48.860;9.198;2024-03-02T14:51:45;14.50;99.90
8595;DHT22;4335;48.860;9.198;2024-03-02T14:54:21;14.50;99.90
8595;DHT22;4335;48.860;9.198;2024-03-02T14:56:49;14.60;99.90
8595;DHT22;4335;48.860;9.198;2024-03-02T14:59:20;14.60;99.90
8595;DHT22;4335;48.860;9.198;2024-03-02T15:01:49;14.60;99.90
8595;DHT22;4335;48.860;9.198;2024-03-02T15:04:19;14.60;99.90
8595;DHT22;4335;48.860;9.198;2024-03-02T15:06:47;14.60;99.90
8595;DHT22;4335;48.860;9.198;2024-03-02T15:09:14;14.60;99.20
8595;DHT22;4335;48.860;9.198;2024-03-02T15:11:50;14.70;98.80
8595;DHT22;4335;48.860;9.198;2024-03-02T15:14:20;14.80;99.00
8595;DHT22;4335;48.860;9.198;2024-03-02T15:16:52;14.70;99.60
8595;DHT22;4335;48.860;9.198;2024-03-02T15:19:22;14.70;99.40
8595;DHT22;4335;48.860;9.198;2024-03-02T15:21:58;14.70;99.10
8595;DHT22;4335;48.860;9.198;2024-03-02T15:24:31;14.60;99.30
8595;DHT22;4335;48.860;9.198;2024-03-02T15:26:58;14.60;98.80
8595;DHT22;4335;48.860;9.198;2024-03-02T15:29:29;14.60;98.90
8595;DHT22;4335;48.860;9.198;2024-03-02T15:31:58;14.60;99.00
8595;DHT22;4335;48.860;9.198;2024-03-02T15:34:28;14.50;98.10
8595;DHT22;4335;48.860;9.198;2024-03-02T15:36:56;14.40;98.70
8595;DHT22;4335;48.860;9.198;2024-03-02T15:39:23;14.30;99.50
8595;DHT22;4335;48.860;9.198;2024-03-02T15:41:51;14.30;99.80
8595;DHT22;4335;48.860;9.198;2024-03-02T15:44:18;14.20;99.90
8595;DHT22;4335;48.860;9.198;2024-03-02T15:46:45;14.10;99.90
8595;DHT22;4335;48.860;9.198;2024-03-02T15:49:14;14.00;99.90
8595;DHT22;4335;48.860;9.198;2024-03-02T15:51:44;14.00;99.90
8595;DHT22;4335;48.860;9.198;2024-03-02T15:54:11;14.00;99.90
8595;DHT22;4335;48.860;9.198;2024-03-02T15:56:39;13.90;99.90
8595;DHT22;4335;48.860;9.198;2024-03-02T15:59:07;13.80;99.90
8595;DHT22;4335;48.860;9.198;2024-03-02T16:01:34;13.70;99.90
8595;DHT22;4335;48.860;9.198;2024-03-02T16:04:02;13.60;99.90
8595;DHT22;4335;48.860;9.198;2024-03-02T16:06:31;13.60;99.90
8595;DHT22;4335;48.860;9.198;2024-03-02T16:08:58;13.50;99.90
8595;DHT22;4335;48.860;9.198;2024-03-02T16:11:28;13.50;99.90
8595;DHT22;4335;48.860;9.198;2024-03-02T16:13:56;13.40;99.90
8595;DHT22;4335;48.860;9.198;2024-03-02T16:16:24;13.40;99.90
8595;DHT22;4335;48.860;9.198;2024-03-02T16:18:55;13.40;99.90
8595;DHT22;4335;48.860;9.198;2024-03-02T16:21:22;13.30;99.90
8595;DHT22;4335;48.860;9.198;2024-03-02T16:23:53;13.30;99.90
8595;DHT22;4335;48.860;9.198;2024-03-02T16:26:26;13.20;99.90
8595;DHT22;4335;48.860;9.198;2024-03-02T16:28:53;13.20;99.90
8595;DHT22;4335;48.860;9.198;2024-03-02T16:31:21;13.10;99.90
8595;DHT22;4335;48.860;9.198;2024-03-02T16:33:50;13.10;99.90
8595;DHT22;4335;48.860;9.198;2024-03-02T16:36:18;13.00;99.90
8595;DHT22;4335;48.860;9.198;2024-03-02T16:38:48;12.90;99.90